createdAt,value
2023-05-02T00:00:03.751Z,1015.7
2023-05-02T00:02:02.926Z,1015.7
2023-05-02T00:03:02.314Z,1015.7
2023-05-02T00:04:02.443Z,1015.7
2023-05-02T00:05:02.241Z,1015.7
2023-05-02T00:06:02.335Z,1015.6
2023-05-02T00:07:02.184Z,1015.6
2023-05-02T00:08:01.953Z,1015.6
2023-05-02T00:09:02.020Z,1015.6
2023-05-02T00:10:03.297Z,1015.6
2023-05-02T00:11:02.009Z,1015.6
2023-05-02T00:12:02.056Z,1015.6
2023-05-02T00:13:01.874Z,1015.6
2023-05-02T00:14:01.923Z,1015.5
2023-05-02T00:15:01.787Z,1015.5
2023-05-02T00:16:02.110Z,1015.5
2023-05-02T00:17:02.352Z,1015.5
2023-05-02T00:18:02.107Z,1015.6
2023-05-02T00:19:02.118Z,1015.6
2023-05-02T00:20:02.776Z,1015.6
2023-05-02T00:21:02.454Z,1015.6
2023-05-02T00:22:02.516Z,1015.5
2023-05-02T00:23:02.885Z,1015.6
2023-05-02T00:24:01.897Z,1015.6
2023-05-02T00:25:01.597Z,1015.6
2023-05-02T00:26:02.662Z,1015.5
2023-05-02T00:27:02.577Z,1015.6
2023-05-02T00:28:02.582Z,1015.5
2023-05-02T00:29:02.513Z,1015.5
2023-05-02T00:30:03.403Z,1015.5
2023-05-02T00:31:02.746Z,1015.6
2023-05-02T00:32:02.485Z,1015.6
2023-05-02T00:33:02.657Z,1015.5
2023-05-02T00:34:02.388Z,1015.5
2023-05-02T00:35:02.442Z,1015.5
2023-05-02T00:36:02.510Z,1015.5
2023-05-02T00:37:02.305Z,1015.6
2023-05-02T00:38:02.321Z,1015.5
2023-05-02T00:39:02.267Z,1015.5
2023-05-02T00:40:03.069Z,1015.5
2023-05-02T00:41:01.853Z,1015.6
2023-05-02T00:42:01.700Z,1015.5
2023-05-02T00:43:01.760Z,1015.6
2023-05-02T00:44:02.661Z,1015.5
2023-05-02T00:45:02.537Z,1015.6
2023-05-02T00:47:01.708Z,1015.5
2023-05-02T00:48:02.749Z,1015.5
2023-05-02T00:49:02.522Z,1015.6
2023-05-02T00:50:03.409Z,1015.5
2023-05-02T00:51:02.076Z,1015.5
2023-05-02T00:52:02.060Z,1015.6
2023-05-02T00:53:01.911Z,1015.5
2023-05-02T00:54:01.904Z,1015.6
2023-05-02T00:55:01.812Z,1015.6
2023-05-02T00:56:01.789Z,1015.5
2023-05-02T00:57:01.727Z,1015.5
2023-05-02T00:58:02.684Z,1015.6
2023-05-02T00:59:02.579Z,1015.5
2023-05-02T01:00:02.975Z,1015.6
2023-05-02T01:02:02.341Z,1015.5
2023-05-02T01:03:02.437Z,1015.5
2023-05-02T01:04:02.618Z,1015.5
2023-05-02T01:05:02.411Z,1015.4
2023-05-02T01:06:02.524Z,1015.4
2023-05-02T01:07:02.273Z,1015.4
2023-05-02T01:08:02.273Z,1015.4
2023-05-02T01:09:02.212Z,1015.5
2023-05-02T01:10:02.783Z,1015.4
2023-05-02T01:11:02.627Z,1015.5
2023-05-02T01:12:02.460Z,1015.4
2023-05-02T01:13:02.567Z,1015.4
2023-05-02T01:14:02.456Z,1015.4
2023-05-02T01:15:02.442Z,1015.4
2023-05-02T01:16:02.742Z,1015.4
2023-05-02T01:17:02.593Z,1015.4
2023-05-02T01:18:02.554Z,1015.5
2023-05-02T01:19:02.525Z,1015.5
2023-05-02T01:20:03.229Z,1015.5
2023-05-02T01:21:02.068Z,1015.5
2023-05-02T01:22:01.938Z,1015.5
2023-05-02T01:23:02.048Z,1015.5
2023-05-02T01:24:01.823Z,1015.5
2023-05-02T01:25:01.887Z,1015.5
2023-05-02T01:26:01.747Z,1015.5
2023-05-02T01:27:01.773Z,1015.4
2023-05-02T01:28:01.664Z,1015.5
2023-05-02T01:29:02.736Z,1015.4
2023-05-02T01:30:03.297Z,1015.5
2023-05-02T01:32:01.990Z,1015.5
2023-05-02T01:33:01.811Z,1015.4
2023-05-02T01:34:01.719Z,1015.5
2023-05-02T01:35:01.637Z,1015.4
2023-05-02T01:36:02.677Z,1015.5
2023-05-02T01:37:02.469Z,1015.5
2023-05-02T01:38:02.560Z,1015.5
2023-05-02T01:39:02.385Z,1015.4
2023-05-02T01:40:02.922Z,1015.5
2023-05-02T01:41:01.646Z,1015.4
2023-05-02T01:42:01.737Z,1015.4
2023-05-02T01:43:01.630Z,1015.4
2023-05-02T01:44:02.710Z,1015.4
2023-05-02T01:45:02.572Z,1015.4
2023-05-02T01:47:01.931Z,1015.4
2023-05-02T01:48:01.981Z,1015.4
2023-05-02T01:49:01.686Z,1015.4
2023-05-02T01:50:02.598Z,1015.4
2023-05-02T01:51:02.258Z,1015.4
2023-05-02T01:52:02.327Z,1015.4
2023-05-02T01:53:02.401Z,1015.4
2023-05-02T01:54:02.162Z,1015.4
2023-05-02T01:55:02.204Z,1015.4
2023-05-02T01:56:02.038Z,1015.4
2023-05-02T01:57:02.055Z,1015.4
2023-05-02T01:58:01.886Z,1015.4
2023-05-02T01:59:01.884Z,1015.4
2023-05-02T02:00:03.346Z,1015.4
2023-05-02T02:02:01.745Z,1015.4
2023-05-02T02:03:01.729Z,1015.5
2023-05-02T02:04:02.806Z,1015.4
2023-05-02T02:05:02.524Z,1015.4
2023-05-02T02:06:02.700Z,1015.4
2023-05-02T02:07:02.450Z,1015.4
2023-05-02T02:08:02.411Z,1015.4
2023-05-02T02:09:02.317Z,1015.4
2023-05-02T02:10:03.192Z,1015.4
2023-05-02T02:11:01.907Z,1015.4
2023-05-02T02:12:01.944Z,1015.4
2023-05-02T02:13:01.774Z,1015.3
2023-05-02T02:14:01.794Z,1015.4
2023-05-02T02:15:01.646Z,1015.4
2023-05-02T02:16:01.922Z,1015.4
2023-05-02T02:17:02.716Z,1015.4
2023-05-02T02:18:02.644Z,1015.4
2023-05-02T02:19:02.319Z,1015.4
2023-05-02T02:20:02.825Z,1015.3
2023-05-02T02:21:02.602Z,1015.3
2023-05-02T02:22:02.382Z,1015.4
2023-05-02T02:23:02.450Z,1015.3
2023-05-02T02:24:02.316Z,1015.4
2023-05-02T02:25:02.373Z,1015.4
2023-05-02T02:26:02.316Z,1015.4
2023-05-02T02:27:02.197Z,1015.4
2023-05-02T02:28:02.229Z,1015.4
2023-05-02T02:29:02.085Z,1015.4
2023-05-02T02:30:02.928Z,1015.3
2023-05-02T02:32:02.066Z,1015.3
2023-05-02T02:33:02.072Z,1015.4
2023-05-02T02:34:01.840Z,1015.4
2023-05-02T02:35:01.731Z,1015.4
2023-05-02T02:36:01.870Z,1015.4
2023-05-02T02:37:01.687Z,1015.4
2023-05-02T02:38:02.686Z,1015.3
2023-05-02T02:39:02.529Z,1015.4
2023-05-02T02:40:03.551Z,1015.4
2023-05-02T02:41:02.279Z,1015.4
2023-05-02T02:42:02.338Z,1015.4
2023-05-02T02:43:02.373Z,1015.4
2023-05-02T02:44:02.154Z,1015.4
2023-05-02T02:45:02.217Z,1015.4
2023-05-02T02:46:02.384Z,1015.4
2023-05-02T02:47:02.078Z,1015.4
2023-05-02T02:48:02.361Z,1015.4
2023-05-02T02:49:01.970Z,1015.4
2023-05-02T02:50:03.042Z,1015.4
2023-05-02T02:51:01.641Z,1015.4
2023-05-02T02:52:01.698Z,1015.4
2023-05-02T02:53:02.694Z,1015.4
2023-05-02T02:54:25.668Z,1015.4
2023-05-02T02:55:02.199Z,1015.4
2023-05-02T02:56:02.215Z,1015.4
2023-05-02T02:57:02.044Z,1015.4
2023-05-02T02:58:02.201Z,1015.4
2023-05-02T02:59:01.981Z,1015.4
2023-05-02T03:00:03.171Z,1015.5
2023-05-02T03:02:02.372Z,1015.5
2023-05-02T03:03:02.493Z,1015.5
2023-05-02T03:04:02.318Z,1015.5
2023-05-02T03:05:02.185Z,1015.5
2023-05-02T03:06:02.261Z,1015.5
2023-05-02T03:07:02.004Z,1015.5
2023-05-02T03:08:02.065Z,1015.5
2023-05-02T03:09:01.912Z,1015.4
2023-05-02T03:10:03.022Z,1015.5
2023-05-02T03:11:01.751Z,1015.5
2023-05-02T03:12:01.781Z,1015.5
2023-05-02T03:13:01.638Z,1015.4
2023-05-02T03:14:02.731Z,1015.4
2023-05-02T03:15:02.557Z,1015.4
2023-05-02T03:17:02.596Z,1015.4
2023-05-02T03:18:02.433Z,1015.4
2023-05-02T03:19:02.149Z,1015.4
2023-05-02T03:20:02.769Z,1015.5
2023-05-02T03:21:02.521Z,1015.4
2023-05-02T03:22:02.420Z,1015.5
2023-05-02T03:23:02.420Z,1015.5
2023-05-02T03:24:02.389Z,1015.5
2023-05-02T03:25:02.388Z,1015.5
2023-05-02T03:26:02.248Z,1015.5
2023-05-02T03:27:02.333Z,1015.5
2023-05-02T03:28:02.126Z,1015.5
2023-05-02T03:29:02.083Z,1015.4
2023-05-02T03:30:02.729Z,1015.5
2023-05-02T03:31:02.253Z,1015.5
2023-05-02T03:32:02.552Z,1015.5
2023-05-02T03:33:02.568Z,1015.5
2023-05-02T03:34:02.255Z,1015.5
2023-05-02T03:35:02.359Z,1015.4
2023-05-02T03:36:02.337Z,1015.4
2023-05-02T03:37:02.094Z,1015.4
2023-05-02T03:38:02.137Z,1015.4
2023-05-02T03:39:01.993Z,1015.4
2023-05-02T03:40:02.820Z,1015.5
2023-05-02T03:41:02.716Z,1015.4
2023-05-02T03:42:02.546Z,1015.4
2023-05-02T03:43:02.587Z,1015.4
2023-05-02T03:44:02.447Z,1015.4
2023-05-02T03:45:02.519Z,1015.4
2023-05-02T03:46:02.554Z,1015.4
2023-05-02T03:47:02.777Z,1015.4
2023-05-02T03:48:02.593Z,1015.5
2023-05-02T03:49:02.504Z,1015.4
2023-05-02T03:50:03.292Z,1015.4
2023-05-02T03:51:01.921Z,1015.4
2023-05-02T03:52:01.977Z,1015.5
2023-05-02T03:53:01.844Z,1015.5
2023-05-02T03:54:01.872Z,1015.5
2023-05-02T03:55:01.689Z,1015.5
2023-05-02T03:56:01.721Z,1015.5
2023-05-02T03:57:02.676Z,1015.5
2023-05-02T03:58:02.529Z,1015.5
2023-05-02T03:59:02.550Z,1015.5
2023-05-02T04:00:03.097Z,1015.6
2023-05-02T04:02:02.485Z,1015.6
2023-05-02T04:03:02.638Z,1015.6
2023-05-02T04:04:02.575Z,1015.6
2023-05-02T04:05:02.427Z,1015.6
2023-05-02T04:06:02.460Z,1015.6
2023-05-02T04:07:02.100Z,1015.6
2023-05-02T04:08:02.156Z,1015.6
2023-05-02T04:09:01.946Z,1015.6
2023-05-02T04:10:03.244Z,1015.6
2023-05-02T04:11:02.033Z,1015.6
2023-05-02T04:12:02.144Z,1015.6
2023-05-02T04:13:01.938Z,1015.6
2023-05-02T04:14:01.989Z,1015.7
2023-05-02T04:15:01.811Z,1015.7
2023-05-02T04:16:01.928Z,1015.6
2023-05-02T04:17:02.181Z,1015.7
2023-05-02T04:18:01.979Z,1015.7
2023-05-02T04:19:01.812Z,1015.7
2023-05-02T04:20:06.290Z,1015.7
2023-05-02T04:21:02.117Z,1015.7
2023-05-02T04:22:02.150Z,1015.7
2023-05-02T04:23:02.039Z,1015.7
2023-05-02T04:24:02.072Z,1015.7
2023-05-02T04:25:01.933Z,1015.7
2023-05-02T04:26:01.988Z,1015.8
2023-05-02T04:27:01.812Z,1015.7
2023-05-02T04:28:01.756Z,1015.8
2023-05-02T04:29:01.670Z,1015.8
2023-05-02T04:30:02.958Z,1015.8
2023-05-02T04:32:02.692Z,1015.7
2023-05-02T04:33:02.683Z,1015.8
2023-05-02T04:34:02.543Z,1015.7
2023-05-02T04:35:02.496Z,1015.8
2023-05-02T04:36:02.426Z,1015.8
2023-05-02T04:37:02.391Z,1015.7
2023-05-02T04:38:02.274Z,1015.8
2023-05-02T04:39:02.257Z,1015.8
2023-05-02T04:40:02.973Z,1015.8
2023-05-02T04:41:10.168Z,1015.8
2023-05-02T04:42:01.834Z,1015.7
2023-05-02T04:43:01.798Z,1015.8
2023-05-02T04:44:01.664Z,1015.8
2023-05-02T04:45:02.724Z,1015.8
2023-05-02T04:47:02.684Z,1015.8
2023-05-02T04:48:02.895Z,1015.8
2023-05-02T04:49:02.649Z,1015.8
2023-05-02T04:50:03.451Z,1015.8
2023-05-02T04:51:02.176Z,1015.7
2023-05-02T04:52:02.261Z,1015.7
2023-05-02T04:53:02.102Z,1015.8
2023-05-02T04:54:02.103Z,1015.8
2023-05-02T04:55:02.033Z,1015.8
2023-05-02T04:56:02.084Z,1015.7
2023-05-02T04:57:01.886Z,1015.8
2023-05-02T04:58:01.938Z,1015.9
2023-05-02T04:59:01.784Z,1015.8
2023-05-02T05:00:02.839Z,1015.9
2023-05-02T05:01:02.737Z,1015.8
2023-05-02T05:02:02.731Z,1015.9
2023-05-02T05:03:02.911Z,1015.9
2023-05-02T05:04:02.023Z,1015.9
2023-05-02T05:05:01.931Z,1015.9
2023-05-02T05:06:01.774Z,1015.9
2023-05-02T05:07:02.068Z,1015.9
2023-05-02T05:08:01.694Z,1015.9
2023-05-02T05:09:01.733Z,1015.9
2023-05-02T05:10:03.543Z,1016
2023-05-02T05:11:02.268Z,1015.9
2023-05-02T05:12:02.442Z,1016
2023-05-02T05:13:02.090Z,1015.9
2023-05-02T05:14:02.155Z,1016
2023-05-02T05:15:02.074Z,1015.9
2023-05-02T05:16:02.576Z,1016
2023-05-02T05:17:02.367Z,1016
2023-05-02T05:18:02.610Z,1016
2023-05-02T05:19:02.254Z,1016
2023-05-02T05:20:03.114Z,1016
2023-05-02T05:21:01.817Z,1016
2023-05-02T05:22:01.811Z,1016
2023-05-02T05:23:01.693Z,1016.1
2023-05-02T05:24:02.693Z,1016.1
2023-05-02T05:25:02.536Z,1016.1
2023-05-02T05:26:02.594Z,1016.1
2023-05-02T05:27:02.419Z,1016.1
2023-05-02T05:28:02.526Z,1016.1
2023-05-02T05:29:02.293Z,1016
2023-05-02T05:30:03.358Z,1016
2023-05-02T05:32:02.705Z,1016.1
2023-05-02T05:33:02.631Z,1016.1
2023-05-02T05:34:02.734Z,1016
2023-05-02T05:35:02.454Z,1016
2023-05-02T05:36:02.365Z,1016.1
2023-05-02T05:37:02.360Z,1016.1
2023-05-02T05:38:02.207Z,1016.1
2023-05-02T05:39:02.296Z,1016.1
2023-05-02T05:40:03.480Z,1016.1
2023-05-02T05:41:02.383Z,1016.1
2023-05-02T05:42:02.428Z,1016.1
2023-05-02T05:43:02.381Z,1016.1
2023-05-02T05:44:02.211Z,1016.1
2023-05-02T05:45:02.305Z,1016.1
2023-05-02T05:46:02.424Z,1016.1
2023-05-02T05:47:02.402Z,1016.1
2023-05-02T05:48:02.521Z,1016.1
2023-05-02T05:49:02.413Z,1016.2
2023-05-02T05:50:03.250Z,1016.1
2023-05-02T05:51:02.275Z,1016.1
2023-05-02T05:52:02.111Z,1016.1
2023-05-02T05:53:02.161Z,1016.2
2023-05-02T05:54:01.933Z,1016.2
2023-05-02T05:55:01.944Z,1016.2
2023-05-02T05:56:01.724Z,1016.2
2023-05-02T05:57:01.695Z,1016.2
2023-05-02T05:58:01.588Z,1016.2
2023-05-02T05:59:02.605Z,1016.2
2023-05-02T06:00:03.893Z,1016.2
2023-05-02T06:02:02.718Z,1016.2
2023-05-02T06:03:02.822Z,1016.2
2023-05-02T06:04:03.063Z,1016.3
2023-05-02T06:05:02.303Z,1016.3
2023-05-02T06:06:02.405Z,1016.2
2023-05-02T06:07:02.284Z,1016.2
2023-05-02T06:08:02.052Z,1016.3
2023-05-02T06:09:02.140Z,1016.2
2023-05-02T06:10:03.289Z,1016.2
2023-05-02T06:11:02.066Z,1016.2
2023-05-02T06:12:02.163Z,1016.3
2023-05-02T06:13:02.448Z,1016.3
2023-05-02T06:14:02.096Z,1016.3
2023-05-02T06:15:02.137Z,1016.3
2023-05-02T06:16:02.326Z,1016.3
2023-05-02T06:17:01.985Z,1016.2
2023-05-02T06:18:02.126Z,1016.3
2023-05-02T06:19:01.852Z,1016.4
2023-05-02T06:20:03.023Z,1016.3
2023-05-02T06:21:01.779Z,1016.3
2023-05-02T06:22:01.817Z,1016.3
2023-05-02T06:23:01.629Z,1016.3
2023-05-02T06:24:01.741Z,1016.2
2023-05-02T06:25:02.683Z,1016.4
2023-05-02T06:26:02.540Z,1016.3
2023-05-02T06:27:02.608Z,1016.4
2023-05-02T06:28:02.506Z,1016.4
2023-05-02T06:29:02.586Z,1016.4
2023-05-02T06:30:04.128Z,1016.4
2023-05-02T06:32:02.752Z,1016.4
2023-05-02T06:33:02.622Z,1016.4
2023-05-02T06:34:02.518Z,1016.5
2023-05-02T06:35:02.467Z,1016.5
2023-05-02T06:36:02.788Z,1016.5
2023-05-02T06:37:02.487Z,1016.5
2023-05-02T06:38:02.325Z,1016.5
2023-05-02T06:39:02.432Z,1016.5
2023-05-02T06:40:03.822Z,1016.4
2023-05-02T06:41:01.806Z,1016.5
2023-05-02T06:42:01.885Z,1016.6
2023-05-02T06:43:01.682Z,1016.6
2023-05-02T06:44:01.773Z,1016.6
2023-05-02T06:45:01.636Z,1016.6
2023-05-02T06:46:01.729Z,1016.6
2023-05-02T06:47:02.122Z,1016.6
2023-05-02T06:48:01.893Z,1016.6
2023-05-02T06:49:01.726Z,1016.6
2023-05-02T06:50:02.895Z,1016.6
2023-05-02T06:51:01.728Z,1016.7
2023-05-02T06:52:01.727Z,1016.7
2023-05-02T06:53:02.640Z,1016.7
2023-05-02T06:54:02.551Z,1016.7
2023-05-02T06:55:02.599Z,1016.7
2023-05-02T06:56:02.471Z,1016.7
2023-05-02T06:57:02.536Z,1016.7
2023-05-02T06:58:02.345Z,1016.7
2023-05-02T06:59:02.325Z,1016.7
2023-05-02T07:00:04.457Z,1016.7
2023-05-02T07:02:05.870Z,1016.7
2023-05-02T07:03:02.796Z,1016.8
2023-05-02T07:04:02.619Z,1016.8
2023-05-02T07:05:02.471Z,1016.8
2023-05-02T07:06:02.404Z,1016.8
2023-05-02T07:07:02.390Z,1016.9
2023-05-02T07:08:02.378Z,1016.8
2023-05-02T07:09:02.181Z,1016.8
2023-05-02T07:10:03.363Z,1016.8
2023-05-02T07:11:02.089Z,1016.8
2023-05-02T07:12:07.216Z,1016.8
2023-05-02T07:13:01.902Z,1016.9
2023-05-02T07:14:01.994Z,1016.8
2023-05-02T07:15:01.794Z,1016.9
2023-05-02T07:16:02.183Z,1016.9
2023-05-02T07:17:02.553Z,1017
2023-05-02T07:18:02.851Z,1016.9
2023-05-02T07:19:02.476Z,1016.9
2023-05-02T07:20:03.869Z,1017
2023-05-02T07:21:01.658Z,1016.9
2023-05-02T07:22:02.724Z,1017
2023-05-02T07:23:02.562Z,1017
2023-05-02T07:24:02.580Z,1017
2023-05-02T07:25:02.457Z,1017
2023-05-02T07:26:06.612Z,1017
2023-05-02T07:27:02.368Z,1017.1
2023-05-02T07:28:02.245Z,1017
2023-05-02T07:29:02.298Z,1017
2023-05-02T07:30:03.676Z,1017
2023-05-02T07:32:02.548Z,1017
2023-05-02T07:33:02.490Z,1017
2023-05-02T07:34:02.201Z,1017
2023-05-02T07:35:02.294Z,1017.1
2023-05-02T07:36:02.250Z,1017
2023-05-02T07:37:02.085Z,1017
2023-05-02T07:38:02.094Z,1017.1
2023-05-02T07:39:01.976Z,1017.1
2023-05-02T07:40:03.561Z,1017.1
2023-05-02T07:41:02.628Z,1017
2023-05-02T07:42:02.455Z,1017.1
2023-05-02T07:43:02.529Z,1017
2023-05-02T07:44:02.357Z,1017.1
2023-05-02T07:45:02.415Z,1017.1
2023-05-02T07:46:02.736Z,1017.1
2023-05-02T07:47:02.361Z,1017.1
2023-05-02T07:48:02.588Z,1017.1
2023-05-02T07:49:02.377Z,1017.1
2023-05-02T07:50:03.333Z,1017.2
2023-05-02T07:51:02.346Z,1017.2
2023-05-02T07:52:02.260Z,1017.3
2023-05-02T07:53:02.149Z,1017.2
2023-05-02T07:54:02.200Z,1017.1
2023-05-02T07:55:02.025Z,1017.2
2023-05-02T07:56:02.064Z,1017.2
2023-05-02T07:57:01.941Z,1017.2
2023-05-02T07:58:02.019Z,1017.2
2023-05-02T07:59:05.751Z,1017.2
2023-05-02T08:00:04.412Z,1017.2
2023-05-02T08:02:02.617Z,1017.2
2023-05-02T08:03:03.008Z,1017.2
2023-05-02T08:04:02.478Z,1017.2
2023-05-02T08:05:02.738Z,1017.2
2023-05-02T08:06:02.685Z,1017.2
2023-05-02T08:07:02.414Z,1017.3
2023-05-02T08:08:02.415Z,1017.2
2023-05-02T08:09:02.288Z,1017.1
2023-05-02T08:10:03.751Z,1017.3
2023-05-02T08:11:02.630Z,1017.3
2023-05-02T08:12:02.496Z,1017.2
2023-05-02T08:13:02.581Z,1017.3
2023-05-02T08:14:02.335Z,1017.2
2023-05-02T08:15:02.302Z,1017.2
2023-05-02T08:16:02.606Z,1017.2
2023-05-02T08:17:02.340Z,1017.3
2023-05-02T08:18:02.757Z,1017.3
2023-05-02T08:19:02.593Z,1017.3
2023-05-02T08:20:03.379Z,1017.4
2023-05-02T08:21:02.091Z,1017.3
2023-05-02T08:22:02.189Z,1017.3
2023-05-02T08:23:02.068Z,1017.3
2023-05-02T08:24:02.078Z,1017.3
2023-05-02T08:25:01.983Z,1017.3
2023-05-02T08:26:02.000Z,1017.3
2023-05-02T08:27:01.824Z,1017.3
2023-05-02T08:28:01.899Z,1017.3
2023-05-02T08:29:01.771Z,1017.3
2023-05-02T08:30:02.325Z,1017.3
2023-05-02T08:32:02.115Z,1017.2
2023-05-02T08:33:01.904Z,1017.2
2023-05-02T08:34:01.802Z,1017.4
2023-05-02T08:35:01.689Z,1017.4
2023-05-02T08:36:01.754Z,1017.4
2023-05-02T08:37:02.681Z,1017.4
2023-05-02T08:38:02.543Z,1017.3
2023-05-02T08:39:02.610Z,1017.3
2023-05-02T08:40:03.934Z,1017.3
2023-05-02T08:41:01.845Z,1017.3
2023-05-02T08:42:01.874Z,1017.5
2023-05-02T08:43:01.838Z,1017.4
2023-05-02T08:44:02.242Z,1017.4
2023-05-02T08:45:01.887Z,1017.5
2023-05-02T08:46:02.054Z,1017.4
2023-05-02T08:47:02.385Z,1017.4
2023-05-02T08:48:02.252Z,1017.4
2023-05-02T08:49:01.976Z,1017.5
2023-05-02T08:50:03.628Z,1017.4
2023-05-02T08:51:02.550Z,1017.4
2023-05-02T08:52:02.488Z,1017.4
2023-05-02T08:53:02.480Z,1017.5
2023-05-02T08:54:02.412Z,1017.4
2023-05-02T08:55:03.676Z,1017.3
2023-05-02T08:56:02.520Z,1017.4
2023-05-02T08:57:02.576Z,1017.4
2023-05-02T08:58:02.481Z,1017.4
2023-05-02T08:59:02.513Z,1017.4
2023-05-02T09:00:02.522Z,1017.4
2023-05-02T09:01:02.737Z,1017.4
2023-05-02T09:02:02.611Z,1017.4
2023-05-02T09:03:02.658Z,1017.4
2023-05-02T09:04:02.624Z,1017.4
2023-05-02T09:05:03.579Z,1017.4
2023-05-02T09:06:02.432Z,1017.3
2023-05-02T09:07:02.425Z,1017.3
2023-05-02T09:08:02.350Z,1017.3
2023-05-02T09:09:02.254Z,1017.3
2023-05-02T09:10:02.264Z,1017.4
2023-05-02T09:11:02.262Z,1017.3
2023-05-02T09:12:02.082Z,1017.3
2023-05-02T09:13:02.108Z,1017.5
2023-05-02T09:14:01.853Z,1017.3
2023-05-02T09:15:02.146Z,1017.4
2023-05-02T09:17:02.330Z,1017.5
2023-05-02T09:18:02.278Z,1017.5
2023-05-02T09:19:02.108Z,1017.4
2023-05-02T09:20:02.159Z,1017.4
2023-05-02T09:21:01.891Z,1017.4
2023-05-02T09:22:01.796Z,1017.5
2023-05-02T09:23:01.672Z,1017.4
2023-05-02T09:24:01.710Z,1017.6
2023-05-02T09:25:02.782Z,1017.4
2023-05-02T09:26:02.639Z,1017.5
2023-05-02T09:27:02.549Z,1017.5
2023-05-02T09:28:02.558Z,1017.5
2023-05-02T09:29:02.752Z,1017.5
2023-05-02T09:30:02.460Z,1017.5
2023-05-02T09:32:02.862Z,1017.5
2023-05-02T09:33:02.558Z,1017.5
2023-05-02T09:34:02.516Z,1017.4
2023-05-02T09:35:02.575Z,1017.5
2023-05-02T09:36:02.467Z,1017.5
2023-05-02T09:37:02.369Z,1017.5
2023-05-02T09:38:02.466Z,1017.5
2023-05-02T09:39:02.275Z,1017.4
2023-05-02T09:40:02.500Z,1017.4
2023-05-02T09:41:02.396Z,1017.4
2023-05-02T09:42:02.373Z,1017.6
2023-05-02T09:43:02.145Z,1017.5
2023-05-02T09:44:02.130Z,1017.5
2023-05-02T09:45:02.641Z,1017.6
2023-05-02T09:46:02.250Z,1017.5
2023-05-02T09:47:02.186Z,1017.5
2023-05-02T09:48:02.441Z,1017.5
2023-05-02T09:49:02.161Z,1017.5
2023-05-02T09:50:02.170Z,1017.6
2023-05-02T09:51:01.973Z,1017.6
2023-05-02T09:52:01.968Z,1017.6
2023-05-02T09:53:01.817Z,1017.6
2023-05-02T09:54:01.873Z,1017.6
2023-05-02T09:55:02.469Z,1017.6
2023-05-02T09:56:02.206Z,1017.6
2023-05-02T09:57:02.252Z,1017.6
2023-05-02T09:58:02.100Z,1017.6
2023-05-02T09:59:02.189Z,1017.6
2023-05-02T10:00:03.375Z,1017.6
2023-05-02T10:02:03.378Z,1017.7
2023-05-02T10:03:02.582Z,1017.7
2023-05-02T10:04:02.316Z,1017.7
2023-05-02T10:05:03.426Z,1017.7
2023-05-02T10:06:02.637Z,1017.7
2023-05-02T10:07:02.378Z,1017.7
2023-05-02T10:08:02.494Z,1017.7
2023-05-02T10:09:02.362Z,1017.7
2023-05-02T10:10:02.205Z,1017.7
2023-05-02T10:11:02.245Z,1017.7
2023-05-02T10:12:02.086Z,1017.7
2023-05-02T10:13:02.059Z,1017.8
2023-05-02T10:14:01.987Z,1017.8
2023-05-02T10:15:03.130Z,1017.8
2023-05-02T10:17:02.120Z,1017.7
2023-05-02T10:18:02.142Z,1017.8
2023-05-02T10:19:01.870Z,1017.8
2023-05-02T10:20:01.974Z,1017.8
2023-05-02T10:21:01.744Z,1017.8
2023-05-02T10:22:01.746Z,1017.8
2023-05-02T10:23:01.627Z,1017.8
2023-05-02T10:24:02.793Z,1017.7
2023-05-02T10:25:03.792Z,1017.8
2023-05-02T10:26:02.510Z,1017.8
2023-05-02T10:27:02.686Z,1017.8
2023-05-02T10:28:02.482Z,1017.8
2023-05-02T10:29:02.577Z,1017.8
2023-05-02T10:30:02.501Z,1017.8
2023-05-02T10:31:02.595Z,1017.8
2023-05-02T10:32:03.055Z,1017.9
2023-05-02T10:33:02.008Z,1017.9
2023-05-02T10:34:01.784Z,1017.8
2023-05-02T10:35:02.704Z,1017.9
2023-05-02T10:36:02.569Z,1017.9
2023-05-02T10:37:02.668Z,1017.9
2023-05-02T10:38:02.547Z,1017.9
2023-05-02T10:39:02.355Z,1018
2023-05-02T10:40:02.416Z,1017.9
2023-05-02T10:41:02.227Z,1018
2023-05-02T10:42:02.264Z,1017.9
2023-05-02T10:43:02.037Z,1018
2023-05-02T10:44:02.112Z,1017.9
2023-05-02T10:45:02.997Z,1017.9
2023-05-02T10:47:02.419Z,1018
2023-05-02T10:48:02.329Z,1017.9
2023-05-02T10:49:02.022Z,1017.9
2023-05-02T10:50:02.109Z,1018
2023-05-02T10:51:01.940Z,1017.9
2023-05-02T10:52:01.887Z,1017.9
2023-05-02T10:53:01.759Z,1018
2023-05-02T10:54:01.809Z,1017.9
2023-05-02T10:55:02.384Z,1018
2023-05-02T10:56:02.052Z,1018
2023-05-02T10:57:02.144Z,1018
2023-05-02T10:58:02.030Z,1018
2023-05-02T10:59:02.048Z,1017.9
2023-05-02T11:00:02.828Z,1018
2023-05-02T11:02:04.600Z,1017.9
2023-05-02T11:03:03.214Z,1017.9
2023-05-02T11:04:01.922Z,1018
2023-05-02T11:05:03.497Z,1017.9
2023-05-02T11:06:02.586Z,1018
2023-05-02T11:07:02.382Z,1018
2023-05-02T11:08:02.339Z,1018
2023-05-02T11:09:02.333Z,1017.9
2023-05-02T11:10:02.173Z,1018
2023-05-02T11:11:02.222Z,1018.1
2023-05-02T11:12:02.067Z,1018
2023-05-02T11:13:02.167Z,1018.1
2023-05-02T11:14:02.033Z,1018.1
2023-05-02T11:15:03.296Z,1018.1
2023-05-02T11:17:02.348Z,1018.1
2023-05-02T11:18:02.688Z,1018.1
2023-05-02T11:19:02.514Z,1018.1
2023-05-02T11:20:02.323Z,1018.1
2023-05-02T11:21:02.344Z,1018.1
2023-05-02T11:22:02.375Z,1018.1
2023-05-02T11:23:02.216Z,1018.1
2023-05-02T11:24:02.319Z,1018.2
2023-05-02T11:25:03.174Z,1018.1
2023-05-02T11:26:01.816Z,1018.1
2023-05-02T11:27:01.853Z,1018.1
2023-05-02T11:28:01.718Z,1018.1
2023-05-02T11:29:01.782Z,1018.1
2023-05-02T11:30:01.639Z,1018.1
2023-05-02T11:31:02.612Z,1018.1
2023-05-02T11:32:02.838Z,1018.1
2023-05-02T11:33:02.640Z,1018.1
2023-05-02T11:34:02.484Z,1018.1
2023-05-02T11:35:03.448Z,1018.2
2023-05-02T11:36:02.114Z,1018.2
2023-05-02T11:37:02.084Z,1018.3
2023-05-02T11:38:01.987Z,1018.2
2023-05-02T11:39:02.033Z,1018.2
2023-05-02T11:40:01.811Z,1018.2
2023-05-02T11:41:01.779Z,1018.3
2023-05-02T11:42:01.759Z,1018.3
2023-05-02T11:43:01.736Z,1018.2
2023-05-02T11:44:02.657Z,1018.3
2023-05-02T11:45:03.702Z,1018.2
2023-05-02T11:46:03.386Z,1018.3
2023-05-02T11:47:02.177Z,1018.3
2023-05-02T11:48:02.057Z,1018.4
2023-05-02T11:49:02.083Z,1018.3
2023-05-02T11:50:01.917Z,1018.3
2023-05-02T11:51:01.925Z,1018.3
2023-05-02T11:52:01.973Z,1018.3
2023-05-02T11:53:01.782Z,1018.3
2023-05-02T11:54:01.595Z,1018.3
2023-05-02T11:55:04.087Z,1018.4
2023-05-02T11:56:02.010Z,1018.3
2023-05-02T11:57:02.064Z,1018.4
2023-05-02T11:58:01.817Z,1018.5
2023-05-02T11:59:01.866Z,1018.4
2023-05-02T12:00:01.697Z,1018.5
2023-05-02T12:01:01.685Z,1018.4
2023-05-02T12:02:01.704Z,1018.5
2023-05-02T12:03:02.990Z,1018.4
2023-05-02T12:04:01.806Z,1018.5
2023-05-02T12:05:03.924Z,1018.5
2023-05-02T12:06:02.567Z,1018.5
2023-05-02T12:07:02.677Z,1018.5
2023-05-02T12:08:02.470Z,1018.6
2023-05-02T12:09:02.306Z,1018.5
2023-05-02T12:10:02.396Z,1018.5
2023-05-02T12:11:02.325Z,1018.5
2023-05-02T12:12:02.159Z,1018.6
2023-05-02T12:13:02.250Z,1018.5
2023-05-02T12:14:02.061Z,1018.5
2023-05-02T12:15:02.974Z,1018.5
2023-05-02T12:16:02.452Z,1018.5
2023-05-02T12:17:02.263Z,1018.6
2023-05-02T12:18:02.298Z,1018.5
2023-05-02T12:19:02.203Z,1018.5
2023-05-02T12:20:01.990Z,1018.6
2023-05-02T12:21:02.034Z,1018.5
2023-05-02T12:22:01.859Z,1018.6
2023-05-02T12:23:01.963Z,1018.5
2023-05-02T12:24:01.727Z,1018.6
2023-05-02T12:25:02.762Z,1018.5
2023-05-02T12:26:02.705Z,1018.5
2023-05-02T12:27:02.541Z,1018.5
2023-05-02T12:28:02.593Z,1018.5
2023-05-02T12:29:02.472Z,1018.6
2023-05-02T12:30:03.981Z,1018.5
2023-05-02T12:32:02.563Z,1018.5
2023-05-02T12:33:02.618Z,1018.5
2023-05-02T12:34:02.513Z,1018.6
2023-05-02T12:35:02.336Z,1018.6
2023-05-02T12:36:02.429Z,1018.5
2023-05-02T12:37:02.186Z,1018.6
2023-05-02T12:38:02.265Z,1018.6
2023-05-02T12:39:02.144Z,1018.6
2023-05-02T12:40:03.880Z,1018.5
2023-05-02T12:41:01.802Z,1018.5
2023-05-02T12:42:01.842Z,1018.6
2023-05-02T12:43:01.624Z,1018.6
2023-05-02T12:44:01.783Z,1018.6
2023-05-02T12:45:02.677Z,1018.5
2023-05-02T12:46:02.535Z,1018.5
2023-05-02T12:47:02.760Z,1018.6
2023-05-02T12:48:02.631Z,1018.7
2023-05-02T12:49:02.510Z,1018.6
2023-05-02T12:50:03.460Z,1018.7
2023-05-02T12:51:02.354Z,1018.7
2023-05-02T12:52:02.440Z,1018.7
2023-05-02T12:53:02.360Z,1018.7
2023-05-02T12:54:02.286Z,1018.7
2023-05-02T12:55:02.318Z,1018.7
2023-05-02T12:56:02.274Z,1018.7
2023-05-02T12:57:02.124Z,1018.6
2023-05-02T12:58:02.193Z,1018.7